Time;durP1;ratioP1;P1;durP2;ratioP2;P2;SDS_P1;SDS_P2;PMS_P1;PMS_P2;Temp;Humidity;BMP_temperature;BMP_pressure;BME280_temperature;BME280_humidity;BME280_pressure;Samples;Min_cycle;Max_cycle;Signal;HPM_P1;HPM_P2
2020/03/01 00:00:14;;;;;;;0.7;0.7;;;;;;;6.57;78.19238;94082.79;;;;
2020/03/01 00:01:19;;;;;;;0.7;0.7;;;;;;;6.57;78.19238;94082.79;;;;
2020/03/01 00:02:25;;;;;;;0.7;0.7;;;;;;;6.57;78.19238;94082.79;;;;
2020/03/01 00:03:27;;;;;;;0.7;0.7;;;;;;;6.57;78.19238;94082.79;;;;
2020/03/01 00:04:27;;;;;;;0.7;0.7;;;;;;;6.57;78.19238;94082.79;;;;
2020/03/01 00:05:28;;;;;;;0.7;0.7;;;;;;;6.57;78.19238;94082.79;;;;
2020/03/01 00:06:30;;;;;;;0.7;0.7;;;;;;;6.57;78.19238;94082.79;;;;
2020/03/01 00:07:31;;;;;;;0.6;0.6;;;;;;;6.3;79.18262;94082.98;;;;
2020/03/01 00:08:32;;;;;;;0.6;0.6;;;;;;;6.3;79.18262;94082.98;;;;
2020/03/01 00:09:32;;;;;;;0.6;0.6;;;;;;;6.3;79.18262;94082.98;;;;
2020/03/01 00:10:35;;;;;;;0.6;0.6;;;;;;;6.3;79.18262;94082.98;;;;
2020/03/01 00:11:40;;;;;;;0.6;0.6;;;;;;;6.3;79.18262;94082.98;;;;
2020/03/01 00:12:40;;;;;;;0.6;0.6;;;;;;;6.3;79.18262;94082.98;;;;
2020/03/01 00:13:41;;;;;;;0.6;0.6;;;;;;;6.3;79.18262;94082.98;;;;
2020/03/01 00:14:41;;;;;;;0.6;0.6;;;;;;;6.3;79.18262;94082.98;;;;
2020/03/01 00:15:42;;;;;;;0.6;0.6;;;;;;;6.3;79.18262;94082.98;;;;
2020/03/01 00:16:43;;;;;;;0.6;0.6;;;;;;;6.3;79.18262;94082.98;;;;
2020/03/01 00:17:59;;;;;;;1.4;0.7;;;;;;;6.14;80.24219;94065.39;;;;
2020/03/01 00:19:00;;;;;;;1.4;0.7;;;;;;;6.14;80.24219;94065.39;;;;
2020/03/01 00:20:01;;;;;;;1.4;0.7;;;;;;;6.14;80.24219;94065.39;;;;
2020/03/01 00:26:15;;;;;;;1.4;0.7;;;;;;;6.14;80.24219;94065.39;;;;
2020/03/01 00:27:16;;;;;;;1.4;0.7;;;;;;;6.14;80.24219;94065.39;;;;
2020/03/01 00:28:17;;;;;;;1.25;0.7;;;;;;;6;80.18555;94073.01;;;;
2020/03/01 00:29:18;;;;;;;1.25;0.7;;;;;;;6;80.18555;94073.01;;;;
2020/03/01 00:30:20;;;;;;;1.25;0.7;;;;;;;6;80.18555;94073.01;;;;
2020/03/01 00:31:21;;;;;;;1.25;0.7;;;;;;;6;80.18555;94073.01;;;;
2020/03/01 00:32:21;;;;;;;1.25;0.7;;;;;;;6;80.18555;94073.01;;;;
2020/03/01 00:33:22;;;;;;;1.25;0.7;;;;;;;6;80.18555;94073.01;;;;
2020/03/01 00:34:22;;;;;;;1.25;0.7;;;;;;;6;80.18555;94073.01;;;;
2020/03/01 00:35:23;;;;;;;1.25;0.7;;;;;;;6;80.18555;94073.01;;;;
2020/03/01 00:36:23;;;;;;;1.25;0.7;;;;;;;6;80.18555;94073.01;;;;
2020/03/01 00:37:26;;;;;;;1.25;0.7;;;;;;;6;80.18555;94073.01;;;;
2020/03/01 00:38:26;;;;;;;1.25;0.7;;;;;;;6;80.18555;94073.01;;;;
2020/03/01 00:39:27;;;;;;;0.7;0.7;;;;;;;5.97;80.53809;94081.13;;;;
2020/03/01 00:40:28;;;;;;;0.7;0.7;;;;;;;5.97;80.53809;94081.13;;;;
2020/03/01 00:41:29;;;;;;;0.7;0.7;;;;;;;5.97;80.53809;94081.13;;;;
2020/03/01 00:42:29;;;;;;;0.7;0.7;;;;;;;5.97;80.53809;94081.13;;;;
2020/03/01 00:43:30;;;;;;;0.7;0.7;;;;;;;5.97;80.53809;94081.13;;;;
2020/03/01 00:44:30;;;;;;;0.7;0.7;;;;;;;5.97;80.53809;94081.13;;;;
2020/03/01 00:45:47;;;;;;;0.7;0.7;;;;;;;5.97;80.53809;94081.13;;;;
2020/03/01 00:46:47;;;;;;;0.7;0.7;;;;;;;5.97;80.53809;94081.13;;;;
2020/03/01 00:47:48;;;;;;;0.7;0.7;;;;;;;5.97;80.53809;94081.13;;;;
2020/03/01 00:48:48;;;;;;;0.7;0.7;;;;;;;5.97;80.53809;94081.13;;;;
2020/03/01 00:49:49;;;;;;;0.85;0.8;;;;;;;5.91;80.50488;94070.93;;;;
2020/03/01 00:50:49;;;;;;;0.85;0.8;;;;;;;5.91;80.50488;94070.93;;;;
2020/03/01 00:51:51;;;;;;;0.85;0.8;;;;;;;5.91;80.50488;94070.93;;;;
2020/03/01 00:52:52;;;;;;;0.85;0.8;;;;;;;5.91;80.50488;94070.93;;;;
2020/03/01 00:53:52;;;;;;;0.85;0.8;;;;;;;5.91;80.50488;94070.93;;;;
2020/03/01 00:54:53;;;;;;;0.85;0.8;;;;;;;5.91;80.50488;94070.93;;;;
2020/03/01 00:55:53;;;;;;;0.85;0.8;;;;;;;5.91;80.50488;94070.93;;;;
2020/03/01 00:56:54;;;;;;;0.85;0.8;;;;;;;5.91;80.50488;94070.93;;;;
2020/03/01 00:57:55;;;;;;;0.85;0.8;;;;;;;5.91;80.50488;94070.93;;;;
2020/03/01 00:58:56;;;;;;;0.85;0.8;;;;;;;5.91;80.50488;94070.93;;;;
2020/03/01 00:59:56;;;;;;;0.85;0.8;;;;;;;5.91;80.50488;94070.93;;;;
2020/03/01 01:00:57;;;;;;;0.7;0.7;;;;;;;5.91;80.6123;94057.95;;;;
2020/03/01 01:02:08;;;;;;;0.7;0.7;;;;;;;5.91;80.6123;94057.95;;;;
2020/03/01 01:03:10;;;;;;;0.7;0.7;;;;;;;5.91;80.6123;94057.95;;;;
2020/03/01 01:04:11;;;;;;;0.7;0.7;;;;;;;5.91;80.6123;94057.95;;;;
2020/03/01 01:05:15;;;;;;;0.7;0.7;;;;;;;5.91;80.6123;94057.95;;;;
2020/03/01 01:06:36;;;;;;;0.7;0.7;;;;;;;5.91;80.6123;94057.95;;;;
2020/03/01 01:07:37;;;;;;;0.7;0.7;;;;;;;5.91;80.6123;94057.95;;;;
2020/03/01 01:08:38;;;;;;;0.7;0.7;;;;;;;5.91;80.6123;94057.95;;;;
2020/03/01 01:09:41;;;;;;;0.7;0.7;;;;;;;5.91;80.6123;94057.95;;;;
2020/03/01 01:10:54;;;;;;;0.95;0.8;;;;;;;5.85;80.58887;94061.05;;;;
2020/03/01 01:12:33;;;;;;;0.95;0.8;;;;;;;5.85;80.58887;94061.05;;;;
2020/03/01 01:13:33;;;;;;;0.95;0.8;;;;;;;5.85;80.58887;94061.05;;;;
2020/03/01 01:14:37;;;;;;;0.95;0.8;;;;;;;5.85;80.58887;94061.05;;;;
2020/03/01 01:15:37;;;;;;;0.95;0.8;;;;;;;5.85;80.58887;94061.05;;;;
2020/03/01 01:16:38;;;;;;;0.95;0.8;;;;;;;5.85;80.58887;94061.05;;;;
2020/03/01 01:17:39;;;;;;;0.95;0.8;;;;;;;5.85;80.58887;94061.05;;;;
2020/03/01 01:18:39;;;;;;;0.95;0.8;;;;;;;5.85;80.58887;94061.05;;;;
2020/03/01 01:19:40;;;;;;;0.95;0.8;;;;;;;5.85;80.58887;94061.05;;;;
2020/03/01 01:20:41;;;;;;;0.95;0.8;;;;;;;5.85;80.58887;94061.05;;;;
2020/03/01 01:21:41;;;;;;;0.95;0.9;;;;;;;5.87;80.84668;94042.05;;;;
2020/03/01 01:22:45;;;;;;;0.95;0.9;;;;;;;5.87;80.84668;94042.05;;;;
2020/03/01 01:23:45;;;;;;;0.95;0.9;;;;;;;5.87;80.84668;94042.05;;;;
2020/03/01 01:24:46;;;;;;;0.95;0.9;;;;;;;5.87;80.84668;94042.05;;;;
2020/03/01 01:25:48;;;;;;;0.95;0.9;;;;;;;5.87;80.84668;94042.05;;;;
2020/03/01 01:26:49;;;;;;;0.95;0.9;;;;;;;5.87;80.84668;94042.05;;;;
2020/03/01 01:27:49;;;;;;;0.95;0.9;;;;;;;5.87;80.84668;94042.05;;;;
2020/03/01 01:28:50;;;;;;;0.95;0.9;;;;;;;5.87;80.84668;94042.05;;;;
2020/03/01 01:29:50;;;;;;;0.95;0.9;;;;;;;5.87;80.84668;94042.05;;;;
2020/03/01 01:30:51;;;;;;;0.95;0.9;;;;;;;5.87;80.84668;94042.05;;;;
2020/03/01 01:31:51;;;;;;;0.85;0.75;;;;;;;5.74;80.74805;94027.97;;;;
2020/03/01 01:32:52;;;;;;;0.85;0.75;;;;;;;5.74;80.74805;94027.97;;;;
2020/03/01 01:33:53;;;;;;;0.85;0.75;;;;;;;5.74;80.74805;94027.97;;;;
2020/03/01 01:34:53;;;;;;;0.85;0.75;;;;;;;5.74;80.74805;94027.97;;;;
2020/03/01 01:35:54;;;;;;;0.85;0.75;;;;;;;5.74;80.74805;94027.97;;;;
2020/03/01 01:36:54;;;;;;;0.85;0.75;;;;;;;5.74;80.74805;94027.97;;;;
2020/03/01 01:37:55;;;;;;;0.85;0.75;;;;;;;5.74;80.74805;94027.97;;;;
2020/03/01 01:38:55;;;;;;;0.85;0.75;;;;;;;5.74;80.74805;94027.97;;;;
2020/03/01 01:39:56;;;;;;;0.85;0.75;;;;;;;5.74;80.74805;94027.97;;;;
2020/03/01 01:40:56;;;;;;;0.85;0.75;;;;;;;5.74;80.74805;94027.97;;;;
2020/03/01 01:41:59;;;;;;;0.85;0.75;;;;;;;5.74;80.74805;94027.97;;;;
2020/03/01 01:43:04;;;;;;;1.1;0.75;;;;;;;5.69;81.74219;94030.95;;;;
2020/03/01 01:44:05;;;;;;;1.1;0.75;;;;;;;5.69;81.74219;94030.95;;;;
2020/03/01 01:45:06;;;;;;;1.1;0.75;;;;;;;5.69;81.74219;94030.95;;;;
2020/03/01 01:46:07;;;;;;;1.1;0.75;;;;;;;5.69;81.74219;94030.95;;;;
2020/03/01 01:47:08;;;;;;;1.1;0.75;;;;;;;5.69;81.74219;94030.95;;;;
2020/03/01 01:48:09;;;;;;;1.1;0.75;;;;;;;5.69;81.74219;94030.95;;;;
2020/03/01 01:49:15;;;;;;;1.1;0.75;;;;;;;5.69;81.74219;94030.95;;;;
2020/03/01 01:50:15;;;;;;;1.1;0.75;;;;;;;5.69;81.74219;94030.95;;;;
2020/03/01 01:51:16;;;;;;;1.1;0.75;;;;;;;5.69;81.74219;94030.95;;;;
2020/03/01 01:52:18;;;;;;;1.1;0.75;;;;;;;5.69;81.74219;94030.95;;;;
2020/03/01 01:53:19;;;;;;;1.75;0.8;;;;;;;5.63;81.3916;94035.11;;;;
2020/03/01 01:54:20;;;;;;;1.75;0.8;;;;;;;5.63;81.3916;94035.11;;;;
2020/03/01 01:55:21;;;;;;;1.75;0.8;;;;;;;5.63;81.3916;94035.11;;;;
2020/03/01 01:56:21;;;;;;;1.75;0.8;;;;;;;5.63;81.3916;94035.11;;;;
2020/03/01 01:57:21;;;;;;;1.75;0.8;;;;;;;5.63;81.3916;94035.11;;;;
2020/03/01 01:58:22;;;;;;;1.75;0.8;;;;;;;5.63;81.3916;94035.11;;;;
2020/03/01 01:59:22;;;;;;;1.75;0.8;;;;;;;5.63;81.3916;94035.11;;;;
2020/03/01 02:00:23;;;;;;;1.75;0.8;;;;;;;5.63;81.3916;94035.11;;;;
2020/03/01 02:01:31;;;;;;;1.75;0.8;;;;;;;5.63;81.3916;94035.11;;;;
2020/03/01 02:02:32;;;;;;;1.75;0.8;;;;;;;5.63;81.3916;94035.11;;;;
2020/03/01 02:03:32;;;;;;;1.75;0.8;;;;;;;5.63;81.3916;94035.11;;;;
2020/03/01 02:04:33;;;;;;;0.7;0.7;;;;;;;5.64;81.74316;94018.81;;;;
2020/03/01 02:05:33;;;;;;;0.7;0.7;;;;;;;5.64;81.74316;94018.81;;;;
2020/03/01 02:06:34;;;;;;;0.7;0.7;;;;;;;5.64;81.74316;94018.81;;;;
2020/03/01 02:07:34;;;;;;;0.7;0.7;;;;;;;5.64;81.74316;94018.81;;;;
2020/03/01 02:08:35;;;;;;;0.7;0.7;;;;;;;5.64;81.74316;94018.81;;;;
2020/03/01 02:09:36;;;;;;;0.7;0.7;;;;;;;5.64;81.74316;94018.81;;;;
2020/03/01 02:10:40;;;;;;;0.7;0.7;;;;;;;5.64;81.74316;94018.81;;;;
2020/03/01 02:11:41;;;;;;;0.7;0.7;;;;;;;5.64;81.74316;94018.81;;;;
2020/03/01 02:12:42;;;;;;;0.7;0.7;;;;;;;5.64;81.74316;94018.81;;;;
2020/03/01 02:13:42;;;;;;;0.7;0.7;;;;;;;5.64;81.74316;94018.81;;;;
2020/03/01 02:14:43;;;;;;;0.7;0.7;;;;;;;5.61;81.86523;94025.58;;;;
2020/03/01 02:15:43;;;;;;;0.7;0.7;;;;;;;5.61;81.86523;94025.58;;;;
2020/03/01 02:16:44;;;;;;;0.7;0.7;;;;;;;5.61;81.86523;94025.58;;;;
2020/03/01 02:17:44;;;;;;;0.7;0.7;;;;;;;5.61;81.86523;94025.58;;;;
2020/03/01 02:18:45;;;;;;;0.7;0.7;;;;;;;5.61;81.86523;94025.58;;;;
2020/03/01 02:19:45;;;;;;;0.7;0.7;;;;;;;5.61;81.86523;94025.58;;;;
2020/03/01 02:20:46;;;;;;;0.7;0.7;;;;;;;5.61;81.86523;94025.58;;;;
2020/03/01 02:21:46;;;;;;;0.7;0.7;;;;;;;5.61;81.86523;94025.58;;;;
2020/03/01 02:22:47;;;;;;;0.7;0.7;;;;;;;5.61;81.86523;94025.58;;;;
2020/03/01 02:23:49;;;;;;;0.7;0.7;;;;;;;5.61;81.86523;94025.58;;;;
2020/03/01 02:24:54;;;;;;;0.8;0.8;;;;;;;5.66;82.57031;94036.8;;;;
2020/03/01 02:25:54;;;;;;;0.8;0.8;;;;;;;5.66;82.57031;94036.8;;;;
2020/03/01 02:26:55;;;;;;;0.8;0.8;;;;;;;5.66;82.57031;94036.8;;;;
2020/03/01 02:27:55;;;;;;;0.8;0.8;;;;;;;5.66;82.57031;94036.8;;;;
2020/03/01 02:28:56;;;;;;;0.8;0.8;;;;;;;5.66;82.57031;94036.8;;;;
2020/03/01 02:29:56;;;;;;;0.8;0.8;;;;;;;5.66;82.57031;94036.8;;;;
2020/03/01 02:30:57;;;;;;;0.8;0.8;;;;;;;5.66;82.57031;94036.8;;;;
2020/03/01 02:31:57;;;;;;;0.8;0.8;;;;;;;5.66;82.57031;94036.8;;;;
2020/03/01 02:32:58;;;;;;;0.8;0.8;;;;;;;5.66;82.57031;94036.8;;;;
2020/03/01 02:33:58;;;;;;;0.8;0.8;;;;;;;5.66;82.57031;94036.8;;;;
2020/03/01 02:34:59;;;;;;;0.8;0.8;;;;;;;5.66;82.57031;94036.8;;;;
2020/03/01 02:35:59;;;;;;;0.8;0.6;;;;;;;5.61;82.74023;94034.01;;;;
2020/03/01 02:37:00;;;;;;;0.8;0.6;;;;;;;5.61;82.74023;94034.01;;;;
2020/03/01 02:38:00;;;;;;;0.8;0.6;;;;;;;5.61;82.74023;94034.01;;;;
2020/03/01 02:44:17;;;;;;;0.8;0.6;;;;;;;5.61;82.74023;94034.01;;;;
2020/03/01 02:45:17;;;;;;;0.8;0.6;;;;;;;5.61;82.74023;94034.01;;;;
2020/03/01 02:46:18;;;;;;;1.45;0.7;;;;;;;5.59;83.79199;94028.5;;;;
2020/03/01 02:47:18;;;;;;;1.45;0.7;;;;;;;5.59;83.79199;94028.5;;;;
2020/03/01 02:48:19;;;;;;;1.45;0.7;;;;;;;5.59;83.79199;94028.5;;;;
2020/03/01 02:49:20;;;;;;;1.45;0.7;;;;;;;5.59;83.79199;94028.5;;;;
2020/03/01 02:50:20;;;;;;;1.45;0.7;;;;;;;5.59;83.79199;94028.5;;;;
2020/03/01 02:51:21;;;;;;;1.45;0.7;;;;;;;5.59;83.79199;94028.5;;;;
2020/03/01 02:52:21;;;;;;;1.45;0.7;;;;;;;5.59;83.79199;94028.5;;;;
2020/03/01 02:53:22;;;;;;;1.45;0.7;;;;;;;5.59;83.79199;94028.5;;;;
2020/03/01 02:54:22;;;;;;;1.45;0.7;;;;;;;5.59;83.79199;94028.5;;;;
2020/03/01 02:55:23;;;;;;;1.45;0.7;;;;;;;5.59;83.79199;94028.5;;;;
2020/03/01 02:56:23;;;;;;;1.45;0.7;;;;;;;5.59;83.79199;94028.5;;;;
2020/03/01 02:57:24;;;;;;;0.6;0.6;;;;;;;5.44;84.20508;94017.46;;;;
2020/03/01 02:58:24;;;;;;;0.6;0.6;;;;;;;5.44;84.20508;94017.46;;;;
2020/03/01 02:59:25;;;;;;;0.6;0.6;;;;;;;5.44;84.20508;94017.46;;;;
2020/03/01 03:00:25;;;;;;;0.6;0.6;;;;;;;5.44;84.20508;94017.46;;;;
2020/03/01 03:01:32;;;;;;;0.6;0.6;;;;;;;5.44;84.20508;94017.46;;;;
2020/03/01 03:02:36;;;;;;;0.6;0.6;;;;;;;5.44;84.20508;94017.46;;;;
2020/03/01 03:03:37;;;;;;;0.6;0.6;;;;;;;5.44;84.20508;94017.46;;;;
2020/03/01 03:04:43;;;;;;;0.6;0.6;;;;;;;5.44;84.20508;94017.46;;;;
2020/03/01 03:05:43;;;;;;;0.6;0.6;;;;;;;5.44;84.20508;94017.46;;;;
2020/03/01 03:06:49;;;;;;;0.6;0.6;;;;;;;5.44;84.20508;94017.46;;;;
2020/03/01 03:07:49;;;;;;;1.2;0.7;;;;;;;5.37;84.71777;94034.68;;;;
2020/03/01 03:08:50;;;;;;;1.2;0.7;;;;;;;5.37;84.71777;94034.68;;;;
2020/03/01 03:09:57;;;;;;;1.2;0.7;;;;;;;5.37;84.71777;94034.68;;;;
2020/03/01 03:10:57;;;;;;;1.2;0.7;;;;;;;5.37;84.71777;94034.68;;;;
2020/03/01 03:12:06;;;;;;;1.2;0.7;;;;;;;5.37;84.71777;94034.68;;;;
2020/03/01 03:13:09;;;;;;;1.2;0.7;;;;;;;5.37;84.71777;94034.68;;;;
2020/03/01 03:14:12;;;;;;;1.2;0.7;;;;;;;5.37;84.71777;94034.68;;;;
2020/03/01 03:15:15;;;;;;;1.2;0.7;;;;;;;5.37;84.71777;94034.68;;;;
2020/03/01 03:16:15;;;;;;;1.2;0.7;;;;;;;5.37;84.71777;94034.68;;;;
2020/03/01 03:17:16;;;;;;;1.2;0.7;;;;;;;5.37;84.71777;94034.68;;;;
2020/03/01 03:18:20;;;;;;;0.9;0.8;;;;;;;5.27;85.37402;94035.67;;;;
2020/03/01 03:19:20;;;;;;;0.9;0.8;;;;;;;5.27;85.37402;94035.67;;;;
2020/03/01 03:20:20;;;;;;;0.9;0.8;;;;;;;5.27;85.37402;94035.67;;;;
2020/03/01 03:21:21;;;;;;;0.9;0.8;;;;;;;5.27;85.37402;94035.67;;;;
2020/03/01 03:22:22;;;;;;;0.9;0.8;;;;;;;5.27;85.37402;94035.67;;;;
2020/03/01 03:23:22;;;;;;;0.9;0.8;;;;;;;5.27;85.37402;94035.67;;;;
2020/03/01 03:24:26;;;;;;;0.9;0.8;;;;;;;5.27;85.37402;94035.67;;;;
2020/03/01 03:25:26;;;;;;;0.9;0.8;;;;;;;5.27;85.37402;94035.67;;;;
2020/03/01 03:26:26;;;;;;;0.9;0.8;;;;;;;5.27;85.37402;94035.67;;;;
2020/03/01 03:27:27;;;;;;;0.9;0.8;;;;;;;5.27;85.37402;94035.67;;;;
2020/03/01 03:28:27;;;;;;;0.9;0.8;;;;;;;5.27;85.37402;94035.67;;;;
2020/03/01 03:29:28;;;;;;;0.95;0.8;;;;;;;5.28;86.11133;94032.48;;;;
2020/03/01 03:30:28;;;;;;;0.95;0.8;;;;;;;5.28;86.11133;94032.48;;;;
2020/03/01 03:31:31;;;;;;;0.95;0.8;;;;;;;5.28;86.11133;94032.48;;;;
2020/03/01 03:32:32;;;;;;;0.95;0.8;;;;;;;5.28;86.11133;94032.48;;;;
2020/03/01 03:33:32;;;;;;;0.95;0.8;;;;;;;5.28;86.11133;94032.48;;;;
2020/03/01 03:34:33;;;;;;;0.95;0.8;;;;;;;5.28;86.11133;94032.48;;;;
2020/03/01 03:35:33;;;;;;;0.95;0.8;;;;;;;5.28;86.11133;94032.48;;;;
2020/03/01 03:36:34;;;;;;;0.95;0.8;;;;;;;5.28;86.11133;94032.48;;;;
2020/03/01 03:37:34;;;;;;;0.95;0.8;;;;;;;5.28;86.11133;94032.48;;;;
2020/03/01 03:38:35;;;;;;;0.95;0.8;;;;;;;5.28;86.11133;94032.48;;;;
2020/03/01 03:39:36;;;;;;;1.2;0.85;;;;;;;5.2;87.23438;94014.5;;;;
2020/03/01 03:40:36;;;;;;;1.2;0.85;;;;;;;5.2;87.23438;94014.5;;;;
2020/03/01 03:41:37;;;;;;;1.2;0.85;;;;;;;5.2;87.23438;94014.5;;;;
2020/03/01 03:42:37;;;;;;;1.2;0.85;;;;;;;5.2;87.23438;94014.5;;;;
2020/03/01 03:43:38;;;;;;;1.2;0.85;;;;;;;5.2;87.23438;94014.5;;;;
2020/03/01 03:44:39;;;;;;;1.2;0.85;;;;;;;5.2;87.23438;94014.5;;;;
2020/03/01 03:45:39;;;;;;;1.2;0.85;;;;;;;5.2;87.23438;94014.5;;;;
2020/03/01 03:46:40;;;;;;;1.2;0.85;;;;;;;5.2;87.23438;94014.5;;;;
2020/03/01 03:47:40;;;;;;;1.2;0.85;;;;;;;5.2;87.23438;94014.5;;;;
2020/03/01 03:48:41;;;;;;;1.2;0.85;;;;;;;5.2;87.23438;94014.5;;;;
2020/03/01 03:49:41;;;;;;;1.2;0.85;;;;;;;5.2;87.23438;94014.5;;;;
2020/03/01 03:50:42;;;;;;;0.75;0.7;;;;;;;5.16;87.38281;94051.75;;;;
2020/03/01 03:51:42;;;;;;;0.75;0.7;;;;;;;5.16;87.38281;94051.75;;;;
2020/03/01 03:52:43;;;;;;;0.75;0.7;;;;;;;5.16;87.38281;94051.75;;;;
2020/03/01 03:53:50;;;;;;;0.75;0.7;;;;;;;5.16;87.38281;94051.75;;;;
2020/03/01 03:54:50;;;;;;;0.75;0.7;;;;;;;5.16;87.38281;94051.75;;;;
2020/03/01 03:55:51;;;;;;;0.75;0.7;;;;;;;5.16;87.38281;94051.75;;;;
2020/03/01 03:56:51;;;;;;;0.75;0.7;;;;;;;5.16;87.38281;94051.75;;;;
2020/03/01 03:57:52;;;;;;;0.75;0.7;;;;;;;5.16;87.38281;94051.75;;;;
2020/03/01 03:58:54;;;;;;;0.75;0.7;;;;;;;5.16;87.38281;94051.75;;;;
2020/03/01 03:59:54;;;;;;;0.75;0.7;;;;;;;5.16;87.38281;94051.75;;;;
2020/03/01 04:00:55;;;;;;;1;0.9;;;;;;;5.1;87.35938;94058.01;;;;
2020/03/01 04:01:57;;;;;;;1;0.9;;;;;;;5.1;87.35938;94058.01;;;;
2020/03/01 04:02:58;;;;;;;1;0.9;;;;;;;5.1;87.35938;94058.01;;;;
2020/03/01 04:04:07;;;;;;;1;0.9;;;;;;;5.1;87.35938;94058.01;;;;
2020/03/01 04:05:09;;;;;;;1;0.9;;;;;;;5.1;87.35938;94058.01;;;;
2020/03/01 04:06:09;;;;;;;1;0.9;;;;;;;5.1;87.35938;94058.01;;;;
2020/03/01 04:07:12;;;;;;;1;0.9;;;;;;;5.1;87.35938;94058.01;;;;
2020/03/01 04:08:13;;;;;;;1;0.9;;;;;;;5.1;87.35938;94058.01;;;;
2020/03/01 04:09:15;;;;;;;1;0.9;;;;;;;5.1;87.35938;94058.01;;;;
2020/03/01 04:10:49;;;;;;;1;0.9;;;;;;;5.1;87.35938;94058.01;;;;
2020/03/01 04:11:49;;;;;;;0.7;0.7;;;;;;;5.1;87.52734;94048.24;;;;
2020/03/01 04:12:50;;;;;;;0.7;0.7;;;;;;;5.1;87.52734;94048.24;;;;
2020/03/01 04:13:50;;;;;;;0.7;0.7;;;;;;;5.1;87.52734;94048.24;;;;
2020/03/01 04:14:51;;;;;;;0.7;0.7;;;;;;;5.1;87.52734;94048.24;;;;
2020/03/01 04:15:54;;;;;;;0.7;0.7;;;;;;;5.1;87.52734;94048.24;;;;
2020/03/01 04:16:55;;;;;;;0.7;0.7;;;;;;;5.1;87.52734;94048.24;;;;
2020/03/01 04:17:56;;;;;;;0.7;0.7;;;;;;;5.1;87.52734;94048.24;;;;
2020/03/01 04:18:56;;;;;;;0.7;0.7;;;;;;;5.1;87.52734;94048.24;;;;
2020/03/01 04:19:57;;;;;;;0.7;0.7;;;;;;;5.1;87.52734;94048.24;;;;
2020/03/01 04:20:58;;;;;;;0.7;0.7;;;;;;;5.1;87.52734;94048.24;;;;
2020/03/01 04:21:58;;;;;;;0.7;0.7;;;;;;;5;87.74023;94049.36;;;;
2020/03/01 04:22:59;;;;;;;0.7;0.7;;;;;;;5;87.74023;94049.36;;;;
2020/03/01 04:24:03;;;;;;;0.7;0.7;;;;;;;5;87.74023;94049.36;;;;
2020/03/01 04:25:04;;;;;;;0.7;0.7;;;;;;;5;87.74023;94049.36;;;;
2020/03/01 04:26:05;;;;;;;0.7;0.7;;;;;;;5;87.74023;94049.36;;;;
2020/03/01 04:27:05;;;;;;;0.7;0.7;;;;;;;5;87.74023;94049.36;;;;
2020/03/01 04:28:06;;;;;;;0.7;0.7;;;;;;;5;87.74023;94049.36;;;;
2020/03/01 04:29:07;;;;;;;0.7;0.7;;;;;;;5;87.74023;94049.36;;;;
2020/03/01 04:30:08;;;;;;;0.7;0.7;;;;;;;5;87.74023;94049.36;;;;
2020/03/01 04:31:12;;;;;;;0.7;0.7;;;;;;;5;87.74023;94049.36;;;;
2020/03/01 04:32:12;;;;;;;0.85;0.7;;;;;;;4.99;87.91699;94062.83;;;;
2020/03/01 04:33:17;;;;;;;0.85;0.7;;;;;;;4.99;87.91699;94062.83;;;;
2020/03/01 04:34:17;;;;;;;0.85;0.7;;;;;;;4.99;87.91699;94062.83;;;;
2020/03/01 04:35:17;;;;;;;0.85;0.7;;;;;;;4.99;87.91699;94062.83;;;;
2020/03/01 04:36:21;;;;;;;0.85;0.7;;;;;;;4.99;87.91699;94062.83;;;;
2020/03/01 04:37:21;;;;;;;0.85;0.7;;;;;;;4.99;87.91699;94062.83;;;;
2020/03/01 04:38:22;;;;;;;0.85;0.7;;;;;;;4.99;87.91699;94062.83;;;;
2020/03/01 04:39:22;;;;;;;0.85;0.7;;;;;;;4.99;87.91699;94062.83;;;;
2020/03/01 04:40:35;;;;;;;0.85;0.7;;;;;;;4.99;87.91699;94062.83;;;;
2020/03/01 04:41:36;;;;;;;0.85;0.7;;;;;;;4.99;87.91699;94062.83;;;;
2020/03/01 04:42:37;;;;;;;0.85;0.7;;;;;;;4.99;87.91699;94062.83;;;;
2020/03/01 04:43:37;;;;;;;1.7;0.8;;;;;;;4.93;87.84277;94052.12;;;;
2020/03/01 04:44:38;;;;;;;1.7;0.8;;;;;;;4.93;87.84277;94052.12;;;;
2020/03/01 04:45:40;;;;;;;1.7;0.8;;;;;;;4.93;87.84277;94052.12;;;;
2020/03/01 04:46:49;;;;;;;1.7;0.8;;;;;;;4.93;87.84277;94052.12;;;;
2020/03/01 04:47:50;;;;;;;1.7;0.8;;;;;;;4.93;87.84277;94052.12;;;;
2020/03/01 04:48:54;;;;;;;1.7;0.8;;;;;;;4.93;87.84277;94052.12;;;;
2020/03/01 04:49:58;;;;;;;1.7;0.8;;;;;;;4.93;87.84277;94052.12;;;;
2020/03/01 04:50:59;;;;;;;1.7;0.8;;;;;;;4.93;87.84277;94052.12;;;;
2020/03/01 04:52:01;;;;;;;1.7;0.8;;;;;;;4.93;87.84277;94052.12;;;;
2020/03/01 04:53:08;;;;;;;1.7;0.8;;;;;;;4.93;87.84277;94052.12;;;;
2020/03/01 04:54:12;;;;;;;0.7;0.7;;;;;;;4.94;88.3916;94042.14;;;;
2020/03/01 04:55:16;;;;;;;0.7;0.7;;;;;;;4.94;88.3916;94042.14;;;;
2020/03/01 04:56:21;;;;;;;0.7;0.7;;;;;;;4.94;88.3916;94042.14;;;;
2020/03/01 04:57:25;;;;;;;0.7;0.7;;;;;;;4.94;88.3916;94042.14;;;;
2020/03/01 04:58:27;;;;;;;0.7;0.7;;;;;;;4.94;88.3916;94042.14;;;;
2020/03/01 04:59:35;;;;;;;0.7;0.7;;;;;;;4.94;88.3916;94042.14;;;;
2020/03/01 05:00:37;;;;;;;0.7;0.7;;;;;;;4.94;88.3916;94042.14;;;;
2020/03/01 05:01:40;;;;;;;0.7;0.7;;;;;;;4.94;88.3916;94042.14;;;;
2020/03/01 05:02:44;;;;;;;0.7;0.7;;;;;;;4.94;88.3916;94042.14;;;;
2020/03/01 05:03:49;;;;;;;0.7;0.7;;;;;;;4.94;88.3916;94042.14;;;;
2020/03/01 05:04:50;;;;;;;0.8;0.8;;;;;;;4.9;88.05566;94034.39;;;;
2020/03/01 05:05:52;;;;;;;0.8;0.8;;;;;;;4.9;88.05566;94034.39;;;;
2020/03/01 05:06:54;;;;;;;0.8;0.8;;;;;;;4.9;88.05566;94034.39;;;;
2020/03/01 05:07:54;;;;;;;0.8;0.8;;;;;;;4.9;88.05566;94034.39;;;;
2020/03/01 05:08:56;;;;;;;0.8;0.8;;;;;;;4.9;88.05566;94034.39;;;;
2020/03/01 05:09:58;;;;;;;0.8;0.8;;;;;;;4.9;88.05566;94034.39;;;;
2020/03/01 05:10:58;;;;;;;0.8;0.8;;;;;;;4.9;88.05566;94034.39;;;;
2020/03/01 05:12:02;;;;;;;0.8;0.8;;;;;;;4.9;88.05566;94034.39;;;;
2020/03/01 05:13:05;;;;;;;0.8;0.8;;;;;;;4.9;88.05566;94034.39;;;;
2020/03/01 05:14:10;;;;;;;0.8;0.8;;;;;;;4.9;88.05566;94034.39;;;;
2020/03/01 05:15:11;;;;;;;0.7;0.7;;;;;;;4.91;88.35352;94022.13;;;;
2020/03/01 05:16:13;;;;;;;0.7;0.7;;;;;;;4.91;88.35352;94022.13;;;;
2020/03/01 05:17:13;;;;;;;0.7;0.7;;;;;;;4.91;88.35352;94022.13;;;;
2020/03/01 05:18:14;;;;;;;0.7;0.7;;;;;;;4.91;88.35352;94022.13;;;;
2020/03/01 05:19:17;;;;;;;0.7;0.7;;;;;;;4.91;88.35352;94022.13;;;;
2020/03/01 05:20:18;;;;;;;0.7;0.7;;;;;;;4.91;88.35352;94022.13;;;;
2020/03/01 05:21:18;;;;;;;0.7;0.7;;;;;;;4.91;88.35352;94022.13;;;;
2020/03/01 05:22:19;;;;;;;0.7;0.7;;;;;;;4.91;88.35352;94022.13;;;;
2020/03/01 05:23:19;;;;;;;0.7;0.7;;;;;;;4.91;88.35352;94022.13;;;;
2020/03/01 05:24:20;;;;;;;0.7;0.7;;;;;;;4.91;88.35352;94022.13;;;;
2020/03/01 05:25:20;;;;;;;0.9;0.7;;;;;;;4.85;88.16016;94012.89;;;;
2020/03/01 05:26:21;;;;;;;0.9;0.7;;;;;;;4.85;88.16016;94012.89;;;;
2020/03/01 05:27:21;;;;;;;0.9;0.7;;;;;;;4.85;88.16016;94012.89;;;;
2020/03/01 05:28:22;;;;;;;0.9;0.7;;;;;;;4.85;88.16016;94012.89;;;;
2020/03/01 05:29:22;;;;;;;0.9;0.7;;;;;;;4.85;88.16016;94012.89;;;;
2020/03/01 05:30:23;;;;;;;0.9;0.7;;;;;;;4.85;88.16016;94012.89;;;;
2020/03/01 05:31:23;;;;;;;0.9;0.7;;;;;;;4.85;88.16016;94012.89;;;;
2020/03/01 05:32:24;;;;;;;0.9;0.7;;;;;;;4.85;88.16016;94012.89;;;;
2020/03/01 05:33:24;;;;;;;0.9;0.7;;;;;;;4.85;88.16016;94012.89;;;;
2020/03/01 05:34:25;;;;;;;0.9;0.7;;;;;;;4.85;88.16016;94012.89;;;;
2020/03/01 05:35:25;;;;;;;0.9;0.7;;;;;;;4.85;88.16016;94012.89;;;;
2020/03/01 05:36:25;;;;;;;0.8;0.8;;;;;;;4.84;88.25488;94000.44;;;;
2020/03/01 05:37:26;;;;;;;0.8;0.8;;;;;;;4.84;88.25488;94000.44;;;;
2020/03/01 05:38:27;;;;;;;0.8;0.8;;;;;;;4.84;88.25488;94000.44;;;;
2020/03/01 05:39:27;;;;;;;0.8;0.8;;;;;;;4.84;88.25488;94000.44;;;;
2020/03/01 05:40:28;;;;;;;0.8;0.8;;;;;;;4.84;88.25488;94000.44;;;;
2020/03/01 05:41:28;;;;;;;0.8;0.8;;;;;;;4.84;88.25488;94000.44;;;;
2020/03/01 05:42:29;;;;;;;0.8;0.8;;;;;;;4.84;88.25488;94000.44;;;;
2020/03/01 05:43:29;;;;;;;0.8;0.8;;;;;;;4.84;88.25488;94000.44;;;;
2020/03/01 05:44:30;;;;;;;0.8;0.8;;;;;;;4.84;88.25488;94000.44;;;;
2020/03/01 05:45:30;;;;;;;0.8;0.8;;;;;;;4.84;88.25488;94000.44;;;;
2020/03/01 05:46:31;;;;;;;1.7;0.8;;;;;;;4.75;87.92188;94004.51;;;;
2020/03/01 05:47:31;;;;;;;1.7;0.8;;;;;;;4.75;87.92188;94004.51;;;;
2020/03/01 05:48:32;;;;;;;1.7;0.8;;;;;;;4.75;87.92188;94004.51;;;;
2020/03/01 05:49:32;;;;;;;1.7;0.8;;;;;;;4.75;87.92188;94004.51;;;;
2020/03/01 05:50:33;;;;;;;1.7;0.8;;;;;;;4.75;87.92188;94004.51;;;;
2020/03/01 05:51:33;;;;;;;1.7;0.8;;;;;;;4.75;87.92188;94004.51;;;;
2020/03/01 05:52:34;;;;;;;1.7;0.8;;;;;;;4.75;87.92188;94004.51;;;;
2020/03/01 05:53:34;;;;;;;1.7;0.8;;;;;;;4.75;87.92188;94004.51;;;;
2020/03/01 05:54:35;;;;;;;1.7;0.8;;;;;;;4.75;87.92188;94004.51;;;;
2020/03/01 05:55:35;;;;;;;1.7;0.8;;;;;;;4.75;87.92188;94004.51;;;;
2020/03/01 05:56:36;;;;;;;1.7;0.8;;;;;;;4.75;87.92188;94004.51;;;;
2020/03/01 05:57:36;;;;;;;1.75;0.8;;;;;;;4.76;87.90234;93983.84;;;;
2020/03/01 05:58:37;;;;;;;1.75;0.8;;;;;;;4.76;87.90234;93983.84;;;;
2020/03/01 05:59:37;;;;;;;1.75;0.8;;;;;;;4.76;87.90234;93983.84;;;;
2020/03/01 06:00:38;;;;;;;1.75;0.8;;;;;;;4.76;87.90234;93983.84;;;;
2020/03/01 06:01:38;;;;;;;1.75;0.8;;;;;;;4.76;87.90234;93983.84;;;;
2020/03/01 06:02:39;;;;;;;1.75;0.8;;;;;;;4.76;87.90234;93983.84;;;;
2020/03/01 06:03:39;;;;;;;1.75;0.8;;;;;;;4.76;87.90234;93983.84;;;;
2020/03/01 06:04:40;;;;;;;1.75;0.8;;;;;;;4.76;87.90234;93983.84;;;;
2020/03/01 06:05:40;;;;;;;1.75;0.8;;;;;;;4.76;87.90234;93983.84;;;;
2020/03/01 06:06:41;;;;;;;1.75;0.8;;;;;;;4.76;87.90234;93983.84;;;;
2020/03/01 06:07:41;;;;;;;1.75;0.8;;;;;;;4.76;87.90234;93983.84;;;;
2020/03/01 06:08:42;;;;;;;0.8;0.8;;;;;;;4.68;87.82422;93987.77;;;;
2020/03/01 06:09:42;;;;;;;0.8;0.8;;;;;;;4.68;87.82422;93987.77;;;;
2020/03/01 06:10:43;;;;;;;0.8;0.8;;;;;;;4.68;87.82422;93987.77;;;;
2020/03/01 06:11:43;;;;;;;0.8;0.8;;;;;;;4.68;87.82422;93987.77;;;;
2020/03/01 06:12:44;;;;;;;0.8;0.8;;;;;;;4.68;87.82422;93987.77;;;;
2020/03/01 06:13:44;;;;;;;0.8;0.8;;;;;;;4.68;87.82422;93987.77;;;;
2020/03/01 06:14:45;;;;;;;0.8;0.8;;;;;;;4.68;87.82422;93987.77;;;;